createdAt,value
2023-05-06T00:00:10.987Z,2341.00
2023-05-06T00:01:11.072Z,2356.00
2023-05-06T00:02:11.068Z,2341.00
2023-05-06T00:03:11.155Z,2358.00
2023-05-06T00:04:11.204Z,2352.00
2023-05-06T00:05:11.553Z,2354.00
2023-05-06T00:06:11.123Z,2354.00
2023-05-06T00:07:11.153Z,2340.00
2023-05-06T00:08:11.201Z,2342.00
2023-05-06T00:09:11.210Z,2342.00
2023-05-06T00:10:11.307Z,2339.00
2023-05-06T00:11:11.267Z,2331.00
2023-05-06T00:12:11.317Z,2344.00
2023-05-06T00:13:11.417Z,2326.00
2023-05-06T00:14:11.388Z,2329.00
2023-05-06T00:15:11.771Z,2328.00
2023-05-06T00:16:11.487Z,2314.00
2023-05-06T00:17:11.505Z,2330.00
2023-05-06T00:18:11.535Z,2333.00
2023-05-06T00:19:11.518Z,2334.00
2023-05-06T00:20:11.583Z,2335.00
2023-05-06T00:21:11.573Z,2340.00
2023-05-06T00:22:11.622Z,2344.00
2023-05-06T00:23:11.639Z,2340.00
2023-05-06T00:24:11.671Z,2356.00
2023-05-06T00:25:11.852Z,2328.00
2023-05-06T00:26:11.715Z,2339.00
2023-05-06T00:27:11.812Z,2332.00
2023-05-06T00:28:11.798Z,2346.00
2023-05-06T00:29:11.897Z,2331.00
2023-05-06T00:30:11.857Z,2337.00
2023-05-06T00:31:11.895Z,2336.00
2023-05-06T00:32:11.960Z,2324.00
2023-05-06T00:33:12.160Z,2320.00
2023-05-06T00:34:11.988Z,2315.00
2023-05-06T00:35:12.056Z,2318.00
2023-05-06T00:36:12.064Z,2327.00
2023-05-06T00:37:12.108Z,2352.00
2023-05-06T00:38:12.131Z,2328.00
2023-05-06T00:39:12.116Z,2332.00
2023-05-06T00:40:12.186Z,2368.00
2023-05-06T00:41:12.229Z,2341.00
2023-05-06T00:42:12.238Z,2343.00
2023-05-06T00:43:12.292Z,2342.00
2023-05-06T00:44:12.303Z,2320.00
2023-05-06T00:45:12.417Z,2330.00
2023-05-06T00:46:12.437Z,2323.00
2023-05-06T00:47:12.414Z,2342.00
2023-05-06T00:48:12.517Z,2337.00
2023-05-06T00:49:12.559Z,2336.00
2023-05-06T00:50:12.503Z,2331.00
2023-05-06T00:51:12.561Z,2351.00
2023-05-06T00:52:12.616Z,2348.00
2023-05-06T00:53:12.619Z,2338.00
2023-05-06T00:54:12.705Z,2327.00
2023-05-06T00:55:12.696Z,2333.00
2023-05-06T00:56:12.719Z,2321.00
2023-05-06T00:57:12.745Z,2329.00
2023-05-06T00:58:12.799Z,2322.00
2023-05-06T00:59:12.805Z,2317.00
2023-05-06T01:00:12.882Z,2317.00
2023-05-06T01:01:12.926Z,2306.00
2023-05-06T01:02:12.954Z,2317.00
2023-05-06T01:03:13.016Z,2309.00
2023-05-06T01:04:13.069Z,2322.00
2023-05-06T01:05:13.124Z,2324.00
2023-05-06T01:06:13.070Z,2340.00
2023-05-06T01:07:13.128Z,2342.00
2023-05-06T01:08:13.174Z,2348.00
2023-05-06T01:09:13.186Z,2311.00
2023-05-06T01:10:13.222Z,2291.00
2023-05-06T01:11:15.540Z,2326.00
2023-05-06T01:12:13.424Z,2311.00
2023-05-06T01:13:13.486Z,2328.00
2023-05-06T01:14:13.531Z,2333.00
2023-05-06T01:15:13.531Z,2304.00
2023-05-06T01:16:13.627Z,2303.00
2023-05-06T01:17:13.782Z,2320.00
2023-05-06T01:18:13.657Z,2316.00
2023-05-06T01:19:13.692Z,2282.00
2023-05-06T01:20:13.729Z,2297.00
2023-05-06T01:21:13.836Z,2274.00
2023-05-06T01:22:13.859Z,2270.00
2023-05-06T01:23:13.862Z,2263.00
2023-05-06T01:24:13.905Z,2284.00
2023-05-06T01:25:13.963Z,2290.00
2023-05-06T01:26:14.006Z,2259.00
2023-05-06T01:27:14.010Z,2262.00
2023-05-06T01:28:14.115Z,2267.00
2023-05-06T01:29:14.208Z,2265.00
2023-05-06T01:30:14.217Z,2250.00
2023-05-06T01:31:14.215Z,2253.00
2023-05-06T01:32:14.260Z,2243.00
2023-05-06T01:33:14.304Z,2253.00
2023-05-06T01:34:14.360Z,2249.00
2023-05-06T01:35:14.414Z,2269.00
2023-05-06T01:36:14.454Z,2248.00
2023-05-06T01:37:14.568Z,2254.00
2023-05-06T01:38:14.534Z,2261.00
2023-05-06T01:39:14.575Z,2253.00
2023-05-06T01:40:14.633Z,2238.00
2023-05-06T01:41:14.695Z,2229.00
2023-05-06T01:42:14.700Z,2254.00
2023-05-06T01:43:14.737Z,2249.00
2023-05-06T01:44:14.778Z,2258.00
2023-05-06T01:45:14.857Z,2287.00
2023-05-06T01:46:14.952Z,2267.00
2023-05-06T01:47:14.931Z,2248.00
2023-05-06T01:48:14.973Z,2262.00
2023-05-06T01:49:15.018Z,2274.00
2023-05-06T01:50:15.102Z,2257.00
2023-05-06T01:51:15.153Z,2262.00
2023-05-06T01:52:15.233Z,2233.00
2023-05-06T01:53:15.361Z,2233.00
2023-05-06T01:54:15.300Z,2238.00
2023-05-06T01:55:15.335Z,2231.00
2023-05-06T01:56:15.403Z,2215.00
2023-05-06T01:57:15.420Z,2260.00
2023-05-06T01:58:15.489Z,2256.00
2023-05-06T01:59:15.534Z,2256.00
2023-05-06T02:00:15.576Z,2239.00
2023-05-06T02:01:15.693Z,2268.00
2023-05-06T02:02:15.660Z,2226.00
2023-05-06T02:03:15.866Z,2233.00
2023-05-06T02:04:15.772Z,2230.00
2023-05-06T02:05:15.824Z,2236.00
2023-05-06T02:06:15.836Z,2222.00
2023-05-06T02:07:15.934Z,2226.00
2023-05-06T02:08:15.963Z,2241.00
2023-05-06T02:09:16.080Z,2226.00
2023-05-06T02:10:16.079Z,2243.00
2023-05-06T02:11:16.122Z,2230.00
2023-05-06T02:12:16.175Z,2244.00
2023-05-06T02:13:16.301Z,2222.00
2023-05-06T02:14:16.255Z,2250.00
2023-05-06T02:15:16.319Z,2245.00
2023-05-06T02:16:16.401Z,2245.00
2023-05-06T02:17:16.412Z,2248.00
2023-05-06T02:18:16.440Z,2228.00
2023-05-06T02:19:17.059Z,2230.00
2023-05-06T02:20:16.543Z,2239.00
2023-05-06T02:21:16.602Z,2216.00
2023-05-06T02:22:16.638Z,2215.00
2023-05-06T02:23:16.673Z,2222.00
2023-05-06T02:24:16.752Z,2205.00
2023-05-06T02:25:16.847Z,2236.00
2023-05-06T02:26:16.875Z,2206.00
2023-05-06T02:27:16.983Z,2238.00
2023-05-06T02:28:17.013Z,2231.00
2023-05-06T02:29:17.072Z,2221.00
2023-05-06T02:30:17.095Z,2225.00
2023-05-06T02:31:17.157Z,2237.00
2023-05-06T02:32:17.196Z,2203.00
2023-05-06T02:33:17.292Z,2216.00
2023-05-06T02:34:17.356Z,2211.00
2023-05-06T02:35:17.341Z,2193.00
2023-05-06T02:36:17.430Z,2199.00
2023-05-06T02:37:17.478Z,2197.00
2023-05-06T02:38:17.538Z,2192.00
2023-05-06T02:39:17.607Z,2205.00
2023-05-06T02:40:17.660Z,2188.00
2023-05-06T02:41:17.765Z,2195.00
2023-05-06T02:42:17.806Z,2184.00
2023-05-06T02:43:17.808Z,2173.00
2023-05-06T02:44:17.875Z,2175.00
2023-05-06T02:45:17.929Z,2171.00
2023-05-06T02:46:18.139Z,2175.00
2023-05-06T02:47:18.053Z,2181.00
2023-05-06T02:48:18.091Z,2200.00
2023-05-06T02:49:18.153Z,2175.00
2023-05-06T02:50:18.243Z,2171.00
2023-05-06T02:51:18.348Z,2170.00
2023-05-06T02:52:18.349Z,2177.00
2023-05-06T02:53:18.428Z,2165.00
2023-05-06T02:54:18.515Z,2176.00
2023-05-06T02:55:18.538Z,2173.00
2023-05-06T02:56:18.582Z,2172.00
2023-05-06T02:57:18.625Z,2176.00
2023-05-06T02:58:18.752Z,2154.00
2023-05-06T02:59:18.777Z,2160.00
2023-05-06T03:00:18.865Z,2153.00
2023-05-06T03:01:18.921Z,2143.00
2023-05-06T03:02:18.978Z,2131.00
2023-05-06T03:03:19.046Z,2131.00
2023-05-06T03:04:19.153Z,2135.00
2023-05-06T03:05:19.117Z,2138.00
2023-05-06T03:06:19.200Z,2136.00
2023-05-06T03:07:19.274Z,2125.00
2023-05-06T03:08:19.310Z,2123.00
2023-05-06T03:09:19.398Z,2117.00
2023-05-06T03:10:19.434Z,2116.00
2023-05-06T03:11:19.466Z,2119.00
2023-05-06T03:12:19.545Z,2118.00
2023-05-06T03:13:19.697Z,2108.00
2023-05-06T03:14:19.697Z,2117.00
2023-05-06T03:15:19.737Z,2115.00
2023-05-06T03:16:19.817Z,2126.00
2023-05-06T03:17:19.856Z,2119.00
2023-05-06T03:18:19.906Z,2119.00
2023-05-06T03:19:19.990Z,2103.00
2023-05-06T03:20:20.117Z,2109.00
2023-05-06T03:21:20.173Z,2108.00
2023-05-06T03:22:20.196Z,2107.00
2023-05-06T03:23:20.202Z,2098.00
2023-05-06T03:24:20.281Z,2098.00
2023-05-06T03:25:20.349Z,2103.00
2023-05-06T03:26:20.412Z,2112.00
2023-05-06T03:27:20.491Z,2119.00
2023-05-06T03:28:20.545Z,2112.00
2023-05-06T03:29:20.664Z,2095.00
2023-05-06T03:30:20.638Z,2106.00
2023-05-06T03:31:20.781Z,2109.00
2023-05-06T03:32:20.793Z,2105.00
2023-05-06T03:33:20.832Z,2105.00
2023-05-06T03:34:20.886Z,2094.00
2023-05-06T03:35:21.025Z,2104.00
2023-05-06T03:36:21.008Z,2100.00
2023-05-06T03:37:21.116Z,2107.00
2023-05-06T03:38:21.136Z,2098.00
2023-05-06T03:39:21.174Z,2095.00
2023-05-06T03:40:21.248Z,2093.00
2023-05-06T03:41:21.277Z,2099.00
2023-05-06T03:42:21.306Z,2090.00
2023-05-06T03:43:21.402Z,2094.00
2023-05-06T03:44:21.443Z,2094.00
2023-05-06T03:45:21.556Z,2094.00
2023-05-06T03:46:21.665Z,2086.00
2023-05-06T03:47:21.615Z,2088.00
2023-05-06T03:48:21.631Z,2091.00
2023-05-06T03:49:21.758Z,2097.00
2023-05-06T03:50:21.771Z,2103.00
2023-05-06T03:51:21.829Z,2085.00
2023-05-06T03:52:21.848Z,2093.00
2023-05-06T03:53:21.911Z,2083.00
2023-05-06T03:54:21.952Z,2086.00
2023-05-06T03:55:22.021Z,2082.00
2023-05-06T03:56:22.097Z,2084.00
2023-05-06T03:57:22.121Z,2086.00
2023-05-06T03:58:22.176Z,2084.00
2023-05-06T03:59:22.227Z,2079.00
2023-05-06T04:00:22.257Z,2083.00
2023-05-06T04:01:22.405Z,2083.00
2023-05-06T04:02:22.530Z,2096.00
2023-05-06T04:03:22.524Z,2080.00
2023-05-06T04:04:22.499Z,2099.00
2023-05-06T04:05:22.541Z,2090.00
2023-05-06T04:06:22.547Z,2095.00
2023-05-06T04:07:22.589Z,2119.00
2023-05-06T04:08:22.611Z,2093.00
2023-05-06T04:09:22.634Z,2079.00
2023-05-06T04:10:22.683Z,2082.00
2023-05-06T04:11:22.691Z,2089.00
2023-05-06T04:12:22.721Z,2091.00
2023-05-06T04:13:22.761Z,2086.00
2023-05-06T04:14:22.761Z,2086.00
2023-05-06T04:15:22.828Z,2089.00
2023-05-06T04:16:22.839Z,2092.00
2023-05-06T04:17:22.994Z,2115.00
2023-05-06T04:18:22.872Z,2114.00
2023-05-06T04:19:22.909Z,2112.00
2023-05-06T04:20:22.916Z,2080.00
2023-05-06T04:21:23.017Z,2078.00
2023-05-06T04:22:23.017Z,2078.00
2023-05-06T04:23:23.009Z,2085.00
2023-05-06T04:24:23.124Z,2082.00
2023-05-06T04:25:23.118Z,2080.00
2023-05-06T04:26:23.146Z,2079.00
2023-05-06T04:27:23.199Z,2065.00
2023-05-06T04:28:23.255Z,2071.00
2023-05-06T04:29:23.218Z,2071.00
2023-05-06T04:30:23.276Z,2058.00
2023-05-06T04:31:23.314Z,2065.00
2023-05-06T04:32:23.328Z,2043.00
2023-05-06T04:33:23.431Z,2068.00
2023-05-06T04:34:23.295Z,2049.00
2023-05-06T04:35:23.307Z,2048.00
2023-05-06T04:36:23.317Z,2036.00
2023-05-06T04:37:23.298Z,2029.00
2023-05-06T04:38:23.307Z,2029.00
2023-05-06T04:39:23.331Z,2026.00
2023-05-06T04:40:23.332Z,2030.00
2023-05-06T04:41:23.329Z,2021.00
2023-05-06T04:42:23.367Z,2026.00
2023-05-06T04:43:23.416Z,2012.00
2023-05-06T04:44:23.415Z,2008.00
2023-05-06T04:45:23.433Z,2012.00
2023-05-06T04:46:23.508Z,2008.00
2023-05-06T04:47:23.463Z,2008.00
2023-05-06T04:48:23.405Z,1998.00
2023-05-06T04:49:23.471Z,2001.00
2023-05-06T04:50:23.452Z,1995.00
2023-05-06T04:51:23.420Z,1989.00
2023-05-06T04:52:23.489Z,1995.00
2023-05-06T04:53:23.442Z,1994.00
2023-05-06T04:54:23.451Z,1988.00
2023-05-06T04:55:23.539Z,1996.00
2023-05-06T04:56:23.463Z,1989.00
2023-05-06T04:57:23.462Z,1984.00
2023-05-06T04:58:23.486Z,1992.00
2023-05-06T04:59:23.536Z,1993.00
2023-05-06T05:00:23.449Z,1990.00
2023-05-06T05:01:23.600Z,1983.00
2023-05-06T05:02:23.592Z,1986.00
2023-05-06T05:03:23.865Z,1985.00
2023-05-06T05:04:23.551Z,1984.00
2023-05-06T05:05:23.648Z,1990.00
2023-05-06T05:06:23.582Z,1987.00
2023-05-06T05:07:23.583Z,1986.00
2023-05-06T05:08:23.509Z,1984.00
2023-05-06T05:09:23.523Z,1990.00
2023-05-06T05:10:23.557Z,1980.00
2023-05-06T05:11:23.611Z,1980.00
2023-05-06T05:12:23.609Z,1973.00
2023-05-06T05:13:23.627Z,1986.00
2023-05-06T05:14:23.616Z,1979.00
2023-05-06T05:15:23.695Z,2008.00
2023-05-06T05:16:23.699Z,1989.00
2023-05-06T05:17:23.753Z,1989.00
2023-05-06T05:18:23.745Z,2001.00
2023-05-06T05:19:23.720Z,2008.00
2023-05-06T05:20:23.788Z,1986.00
2023-05-06T05:21:23.879Z,2007.00
2023-05-06T05:22:23.844Z,2017.00
2023-05-06T05:23:23.824Z,2017.00
2023-05-06T05:24:23.789Z,2017.00
2023-05-06T05:25:23.847Z,2003.00
2023-05-06T05:26:23.845Z,2027.00
2023-05-06T05:27:23.897Z,2029.00
2023-05-06T05:28:23.860Z,2028.00
2023-05-06T05:29:23.871Z,2035.00
2023-05-06T05:30:23.873Z,2036.00
2023-05-06T05:31:23.909Z,2020.00
2023-05-06T05:32:23.894Z,2020.00
2023-05-06T05:33:23.984Z,2012.00
2023-05-06T05:34:23.915Z,2005.00
2023-05-06T05:35:23.896Z,2005.00
2023-05-06T05:36:23.960Z,2012.00
2023-05-06T05:37:23.996Z,1990.00
2023-05-06T05:38:23.999Z,2002.00
2023-05-06T05:39:24.024Z,1998.00
2023-05-06T05:40:24.013Z,1998.00
2023-05-06T05:41:24.017Z,1972.00
2023-05-06T05:42:24.009Z,1989.00
2023-05-06T05:43:24.038Z,1982.00
2023-05-06T05:44:24.049Z,1987.00
2023-05-06T05:45:23.998Z,1986.00
2023-05-06T05:46:24.071Z,1984.00
2023-05-06T05:47:24.050Z,1993.00
2023-05-06T05:48:24.009Z,1984.00
2023-05-06T05:49:24.086Z,1992.00
2023-05-06T05:50:24.070Z,1986.00
2023-05-06T05:51:24.080Z,1981.00
2023-05-06T05:52:24.045Z,1993.00
2023-05-06T05:53:25.017Z,1984.00
2023-05-06T05:54:24.122Z,1969.00
2023-05-06T05:55:24.120Z,1969.00
2023-05-06T05:56:24.045Z,1977.00
2023-05-06T05:57:24.046Z,1978.00
2023-05-06T05:58:24.062Z,1983.00
2023-05-06T05:59:24.067Z,1956.00
2023-05-06T06:00:24.098Z,1974.00
2023-05-06T06:01:24.088Z,1975.00
2023-05-06T06:02:24.214Z,1982.00
2023-05-06T06:03:24.245Z,1965.00
2023-05-06T06:04:24.161Z,1964.00
2023-05-06T06:05:24.134Z,1968.00
2023-05-06T06:06:24.185Z,1960.00
2023-05-06T06:07:24.141Z,1954.00
2023-05-06T06:08:24.224Z,1969.00
2023-05-06T06:09:24.259Z,1955.00
2023-05-06T06:10:24.218Z,1960.00
2023-05-06T06:11:24.225Z,1959.00
2023-05-06T06:12:24.158Z,1960.00
2023-05-06T06:13:25.228Z,1965.00
2023-05-06T06:14:24.248Z,1964.00
2023-05-06T06:15:24.240Z,1957.00
2023-05-06T06:16:24.286Z,1954.00
2023-05-06T06:17:24.244Z,1958.00
2023-05-06T06:18:24.318Z,1949.00
2023-05-06T06:19:24.274Z,1951.00
2023-05-06T06:20:24.289Z,1937.00
2023-05-06T06:21:24.274Z,1939.00
2023-05-06T06:22:24.282Z,1936.00
2023-05-06T06:23:24.313Z,1929.00
2023-05-06T06:24:24.303Z,1934.00
2023-05-06T06:25:24.263Z,1929.00
2023-05-06T06:26:24.328Z,1920.00
2023-05-06T06:27:24.282Z,1931.00
2023-05-06T06:28:24.292Z,1930.00
2023-05-06T06:29:24.283Z,1927.00
2023-05-06T06:30:24.274Z,1915.00
2023-05-06T06:31:24.422Z,1921.00
2023-05-06T06:32:24.366Z,1918.00
2023-05-06T06:33:24.366Z,1906.00
2023-05-06T06:34:24.314Z,1883.00
2023-05-06T06:35:24.385Z,1869.00
2023-05-06T06:36:24.343Z,1865.00
2023-05-06T06:37:24.351Z,1880.00
2023-05-06T06:38:24.401Z,1884.00
2023-05-06T06:39:24.320Z,1856.00
2023-05-06T06:40:24.360Z,1836.00
2023-05-06T06:41:24.566Z,1851.00
2023-05-06T06:42:24.369Z,1837.00
2023-05-06T06:43:24.335Z,1840.00
2023-05-06T06:44:24.389Z,1863.00
2023-05-06T06:45:24.362Z,1858.00
2023-05-06T06:46:24.448Z,1824.00
2023-05-06T06:47:24.434Z,1826.00
2023-05-06T06:48:24.440Z,1818.00
2023-05-06T06:49:24.514Z,1811.00
2023-05-06T06:50:24.480Z,1812.00
2023-05-06T06:51:24.536Z,1819.00
2023-05-06T06:52:24.533Z,1806.00
2023-05-06T06:53:24.569Z,1827.00
2023-05-06T06:54:24.559Z,1851.00
2023-05-06T06:55:24.564Z,1827.00
2023-05-06T06:56:24.634Z,1819.00
2023-05-06T06:57:24.746Z,1840.00
2023-05-06T06:58:24.627Z,1818.00
2023-05-06T06:59:24.657Z,1815.00
2023-05-06T07:00:24.705Z,1814.00
2023-05-06T07:01:24.774Z,1793.00
2023-05-06T07:02:24.769Z,1781.00
2023-05-06T07:03:24.767Z,1786.00
2023-05-06T07:04:24.866Z,1783.00
2023-05-06T07:05:24.869Z,1777.00
2023-05-06T07:06:24.861Z,1787.00
2023-05-06T07:07:24.830Z,1784.00
2023-05-06T07:08:24.856Z,1764.00
2023-05-06T07:09:24.915Z,1777.00
2023-05-06T07:10:24.932Z,1758.00
2023-05-06T07:11:24.926Z,1753.00
2023-05-06T07:12:24.996Z,1744.00
2023-05-06T07:13:25.125Z,1736.00
2023-05-06T07:14:25.095Z,1748.00
2023-05-06T07:15:25.170Z,1747.00
2023-05-06T07:16:25.257Z,1742.00
2023-05-06T07:17:25.281Z,1748.00
2023-05-06T07:18:25.301Z,1751.00
2023-05-06T07:19:25.399Z,1721.00
2023-05-06T07:20:25.470Z,1735.00
2023-05-06T07:21:25.502Z,1735.00
2023-05-06T07:22:25.517Z,1720.00
2023-05-06T07:23:25.639Z,1723.00
2023-05-06T07:24:25.687Z,1736.00
2023-05-06T07:25:25.739Z,1738.00
2023-05-06T07:26:25.796Z,1736.00
2023-05-06T07:27:25.857Z,1734.00
2023-05-06T07:28:25.904Z,1723.00
2023-05-06T07:29:26.010Z,1728.00
2023-05-06T07:30:26.082Z,1734.00
2023-05-06T07:31:26.116Z,1739.00
2023-05-06T07:32:26.156Z,1729.00
2023-05-06T07:33:26.233Z,1737.00
2023-05-06T07:34:26.249Z,1740.00
2023-05-06T07:35:26.338Z,1734.00
2023-05-06T07:36:26.365Z,1725.00
2023-05-06T07:37:26.450Z,1746.00
2023-05-06T07:38:26.492Z,1719.00
2023-05-06T07:39:26.539Z,1721.00
2023-05-06T07:40:26.607Z,1716.00
2023-05-06T07:41:26.672Z,1716.00
2023-05-06T07:42:26.679Z,1711.00
2023-05-06T07:43:26.753Z,1711.00
2023-05-06T07:44:26.826Z,1720.00
2023-05-06T07:45:26.851Z,1722.00
2023-05-06T07:46:26.929Z,1704.00
2023-05-06T07:47:27.039Z,1694.00
2023-05-06T07:48:27.034Z,1675.00
2023-05-06T07:49:27.039Z,1677.00
2023-05-06T07:50:27.136Z,1678.00
2023-05-06T07:51:27.184Z,1681.00
2023-05-06T07:52:27.260Z,1673.00
2023-05-06T07:53:27.329Z,1688.00
2023-05-06T07:54:27.350Z,1686.00
2023-05-06T07:55:27.340Z,1677.00
2023-05-06T07:56:27.397Z,1667.00
2023-05-06T07:57:27.445Z,1673.00
2023-05-06T07:58:27.503Z,1673.00
2023-05-06T07:59:27.554Z,1684.00
2023-05-06T08:00:27.586Z,1683.00
2023-05-06T08:01:27.725Z,1671.00
2023-05-06T08:02:27.919Z,1661.00
2023-05-06T08:03:27.885Z,1677.00
2023-05-06T08:04:27.857Z,1677.00
2023-05-06T08:05:27.866Z,1677.00
2023-05-06T08:06:27.871Z,1681.00
2023-05-06T08:07:27.919Z,1679.00
2023-05-06T08:08:28.130Z,1671.00
2023-05-06T08:09:28.082Z,1655.00
2023-05-06T08:10:28.038Z,1658.00
2023-05-06T08:11:28.106Z,1687.00
2023-05-06T08:12:28.128Z,1683.00
2023-05-06T08:13:31.947Z,1666.00
2023-05-06T08:14:28.167Z,1668.00
2023-05-06T08:15:28.198Z,1653.00
2023-05-06T08:16:28.217Z,1649.00
2023-05-06T08:17:28.195Z,1642.00
2023-05-06T08:18:28.181Z,1645.00
2023-05-06T08:19:28.148Z,1637.00
2023-05-06T08:20:28.147Z,1650.00
2023-05-06T08:21:28.105Z,1644.00
2023-05-06T08:22:28.144Z,1637.00
2023-05-06T08:23:28.119Z,1635.00
2023-05-06T08:24:28.088Z,1634.00
2023-05-06T08:25:28.103Z,1625.00
2023-05-06T08:26:28.120Z,1634.00
2023-05-06T08:27:28.083Z,1634.00
2023-05-06T08:28:28.115Z,1646.00
2023-05-06T08:29:28.069Z,1641.00
2023-05-06T08:30:28.062Z,1655.00
2023-05-06T08:31:28.085Z,1635.00
2023-05-06T08:32:28.088Z,1642.00
2023-05-06T08:33:28.159Z,1630.00
2023-05-06T08:34:28.048Z,1630.00
2023-05-06T08:35:28.011Z,1616.00
2023-05-06T08:36:28.027Z,1619.00
2023-05-06T08:37:28.021Z,1609.00
2023-05-06T08:38:28.021Z,1592.00
2023-05-06T08:39:27.998Z,1595.00
2023-05-06T08:40:28.014Z,1578.00
2023-05-06T08:41:27.997Z,1593.00
2023-05-06T08:42:28.009Z,1585.00
2023-05-06T08:43:27.989Z,1560.00
2023-05-06T08:44:27.970Z,1576.00
2023-05-06T08:45:29.504Z,1569.00
2023-05-06T08:46:27.923Z,1572.00
2023-05-06T08:47:27.974Z,1573.00
2023-05-06T08:48:27.936Z,1567.00
2023-05-06T08:49:27.964Z,1549.00
2023-05-06T08:50:27.905Z,1559.00
2023-05-06T08:51:27.916Z,1537.00
2023-05-06T08:52:27.924Z,1559.00
2023-05-06T08:53:27.924Z,1542.00
2023-05-06T08:54:27.902Z,1532.00
2023-05-06T08:55:27.886Z,1536.00
2023-05-06T08:56:27.909Z,1533.00
2023-05-06T08:57:27.905Z,1530.00
2023-05-06T08:58:27.963Z,1517.00
2023-05-06T08:59:27.947Z,1517.00
2023-05-06T09:00:27.983Z,1502.00
2023-05-06T09:01:28.121Z,1511.00
2023-05-06T09:02:28.128Z,1497.00
2023-05-06T09:03:28.233Z,1481.00
2023-05-06T09:04:28.111Z,1484.00
2023-05-06T09:05:28.110Z,1485.00
2023-05-06T09:06:28.097Z,1481.00
2023-05-06T09:07:28.122Z,1499.00
2023-05-06T09:08:28.134Z,1472.00
2023-05-06T09:09:28.207Z,1470.00
2023-05-06T09:10:28.170Z,1464.00
2023-05-06T09:11:28.236Z,1466.00
2023-05-06T09:12:28.250Z,1481.00
2023-05-06T09:13:28.271Z,1470.00
2023-05-06T09:14:28.326Z,1470.00
2023-05-06T09:15:28.341Z,1476.00
2023-05-06T09:16:28.377Z,1471.00
2023-05-06T09:17:28.469Z,1478.00
2023-05-06T09:18:28.403Z,1475.00
2023-05-06T09:19:28.473Z,1499.00
2023-05-06T09:20:28.478Z,1488.00
2023-05-06T09:21:28.478Z,1489.00
2023-05-06T09:22:28.544Z,1483.00
2023-05-06T09:23:28.537Z,1475.00
2023-05-06T09:24:28.599Z,1471.00
2023-05-06T09:25:28.606Z,1478.00
2023-05-06T09:26:28.612Z,1483.00
2023-05-06T09:27:28.643Z,1479.00
2023-05-06T09:28:28.702Z,1462.00
2023-05-06T09:29:28.667Z,1487.00
2023-05-06T09:30:28.708Z,1489.00
2023-05-06T09:31:28.858Z,1484.00
2023-05-06T09:32:28.780Z,1473.00
2023-05-06T09:33:28.805Z,1474.00
2023-05-06T09:34:28.827Z,1465.00
2023-05-06T09:35:28.851Z,1478.00
2023-05-06T09:36:28.894Z,1490.00
2023-05-06T09:37:28.934Z,1501.00
2023-05-06T09:38:28.903Z,1476.00
2023-05-06T09:39:28.962Z,1496.00
2023-05-06T09:40:28.954Z,1488.00
2023-05-06T09:41:28.986Z,1506.00
2023-05-06T09:42:29.012Z,1489.00
2023-05-06T09:43:28.995Z,1479.00
2023-05-06T09:44:29.085Z,1496.00
2023-05-06T09:45:29.057Z,1505.00
2023-05-06T09:46:29.167Z,1472.00
2023-05-06T09:47:29.136Z,1477.00
2023-05-06T09:48:29.183Z,1475.00
2023-05-06T09:49:29.192Z,1474.00
2023-05-06T09:50:29.201Z,1483.00
2023-05-06T09:51:29.227Z,1478.00
2023-05-06T09:52:29.250Z,1485.00
2023-05-06T09:53:29.254Z,1488.00
2023-05-06T09:54:29.301Z,1487.00
2023-05-06T09:55:29.356Z,1481.00
2023-05-06T09:56:29.330Z,1488.00
2023-05-06T09:57:29.338Z,1474.00
2023-05-06T09:58:29.376Z,1479.00
2023-05-06T09:59:29.426Z,1494.00
2023-05-06T10:00:29.422Z,1503.00
2023-05-06T10:01:36.844Z,1503.00
2023-05-06T10:02:30.509Z,1495.00
2023-05-06T10:03:29.593Z,1503.00
2023-05-06T10:04:29.595Z,1505.00
2023-05-06T10:05:29.487Z,1503.00
2023-05-06T10:06:29.399Z,1480.00
2023-05-06T10:07:29.468Z,1467.00
2023-05-06T10:08:29.443Z,1467.00
2023-05-06T10:09:29.509Z,1464.00
2023-05-06T10:10:29.378Z,1446.00
2023-05-06T10:11:29.408Z,1463.00
2023-05-06T10:12:29.414Z,1454.00
2023-05-06T10:13:29.343Z,1459.00
2023-05-06T10:14:29.371Z,1433.00
2023-05-06T10:15:29.353Z,1462.00
2023-05-06T10:16:29.416Z,1473.00
2023-05-06T10:17:29.444Z,1477.00
2023-05-06T10:18:29.317Z,1477.00
2023-05-06T10:19:29.332Z,1472.00
2023-05-06T10:20:29.348Z,1459.00
2023-05-06T10:21:29.367Z,1460.00
2023-05-06T10:22:29.316Z,1477.00
2023-05-06T10:23:29.293Z,1451.00
2023-05-06T10:24:29.318Z,1441.00
2023-05-06T10:25:29.396Z,1432.00
2023-05-06T10:26:29.252Z,1427.00
2023-05-06T10:27:29.301Z,1446.00
2023-05-06T10:28:31.248Z,1422.00
2023-05-06T10:29:29.273Z,1438.00
2023-05-06T10:30:29.289Z,1416.00
2023-05-06T10:31:29.331Z,1405.00
2023-05-06T10:32:29.348Z,1397.00
2023-05-06T10:33:29.288Z,1405.00
2023-05-06T10:34:29.316Z,1399.00
2023-05-06T10:35:29.286Z,1411.00
2023-05-06T10:36:29.245Z,1410.00
2023-05-06T10:37:29.285Z,1412.00
2023-05-06T10:38:29.270Z,1410.00
2023-05-06T10:39:29.292Z,1417.00
2023-05-06T10:40:29.274Z,1426.00
2023-05-06T10:41:29.351Z,1407.00
2023-05-06T10:42:29.308Z,1414.00
2023-05-06T10:43:29.288Z,1411.00
2023-05-06T10:44:29.315Z,1413.00
2023-05-06T10:45:29.321Z,1421.00
2023-05-06T10:46:29.296Z,1419.00
2023-05-06T10:47:29.352Z,1417.00
2023-05-06T10:48:29.324Z,1409.00
2023-05-06T10:49:29.367Z,1421.00
2023-05-06T10:50:29.369Z,1428.00
2023-05-06T10:51:29.339Z,1421.00
2023-05-06T10:52:29.334Z,1434.00
2023-05-06T10:53:29.329Z,1416.00
2023-05-06T10:54:29.421Z,1423.00
2023-05-06T10:55:29.399Z,1425.00
2023-05-06T10:56:29.429Z,1428.00
2023-05-06T10:57:29.496Z,1410.00
2023-05-06T10:58:29.447Z,1403.00
2023-05-06T10:59:29.477Z,1403.00
2023-05-06T11:00:29.448Z,1414.00
2023-05-06T11:01:29.540Z,1415.00
2023-05-06T11:02:29.568Z,1398.00
2023-05-06T11:03:29.652Z,1391.00
2023-05-06T11:04:29.585Z,1397.00
2023-05-06T11:05:29.590Z,1399.00
2023-05-06T11:06:29.634Z,1405.00
2023-05-06T11:07:29.686Z,1392.00
2023-05-06T11:08:29.685Z,1383.00
2023-05-06T11:09:29.727Z,1377.00
2023-05-06T11:10:29.780Z,1387.00
2023-05-06T11:11:29.842Z,1392.00
2023-05-06T11:12:29.877Z,1383.00
2023-05-06T11:13:30.031Z,1380.00
2023-05-06T11:14:30.013Z,1379.00
2023-05-06T11:15:30.048Z,1391.00
2023-05-06T11:16:30.107Z,1397.00
2023-05-06T11:17:30.164Z,1381.00
2023-05-06T11:18:30.151Z,1368.00
2023-05-06T11:19:30.255Z,1377.00
2023-05-06T11:20:30.315Z,1374.00
2023-05-06T11:21:30.365Z,1378.00
2023-05-06T11:22:30.420Z,1377.00
2023-05-06T11:23:30.489Z,1391.00
2023-05-06T11:24:30.574Z,1383.00
2023-05-06T11:25:30.598Z,1382.00
2023-05-06T11:26:30.660Z,1400.00
2023-05-06T11:27:30.710Z,1414.00
2023-05-06T11:28:30.807Z,1415.00
2023-05-06T11:29:31.047Z,1407.00
2023-05-06T11:30:30.929Z,1405.00
2023-05-06T11:31:31.077Z,1423.00
2023-05-06T11:32:31.017Z,1407.00
2023-05-06T11:33:31.117Z,1444.00
2023-05-06T11:34:31.113Z,1456.00
2023-05-06T11:35:31.192Z,1457.00
2023-05-06T11:36:31.285Z,1481.00
2023-05-06T11:37:31.350Z,1500.00
2023-05-06T11:38:31.409Z,1476.00
2023-05-06T11:39:33.226Z,1468.00
2023-05-06T11:40:31.472Z,1473.00
2023-05-06T11:41:31.439Z,1473.00
2023-05-06T11:42:31.433Z,1480.00
2023-05-06T11:43:31.436Z,1469.00
2023-05-06T11:44:31.427Z,1464.00
2023-05-06T11:45:31.532Z,1449.00
2023-05-06T11:46:31.442Z,1455.00
2023-05-06T11:47:31.427Z,1425.00
2023-05-06T11:48:31.358Z,1435.00
2023-05-06T11:49:31.383Z,1388.00
2023-05-06T11:50:31.398Z,1384.00
2023-05-06T11:51:31.347Z,1389.00
2023-05-06T11:52:31.366Z,1403.00
2023-05-06T11:53:31.371Z,1427.00
2023-05-06T11:54:31.316Z,1421.00
2023-05-06T11:55:31.346Z,1425.00
2023-05-06T11:56:31.344Z,1424.00
2023-05-06T11:57:31.326Z,1414.00
2023-05-06T11:58:31.338Z,1441.00
2023-05-06T11:59:31.302Z,1448.00
2023-05-06T12:00:31.311Z,1435.00
2023-05-06T12:01:31.343Z,1439.00
2023-05-06T12:02:31.418Z,1425.00
2023-05-06T12:03:31.564Z,1421.00
2023-05-06T12:04:31.313Z,1382.00
2023-05-06T12:05:31.265Z,1415.00